sensor_id;sensor_type;location;lat;lon;timestamp;pressure;altitude;pressure_sealevel;temperature;humidity
75942;BME280;64622;46.220;19.878;2023-06-24T00:01:58;100676.69;;;17.97;100.00
75942;BME280;64622;46.220;19.878;2023-06-24T00:04:25;100682.09;;;17.97;100.00
75942;BME280;64622;46.220;19.878;2023-06-24T00:06:52;100679.25;;;18.05;100.00
75942;BME280;64622;46.220;19.878;2023-06-24T00:09:18;100666.94;;;18.03;100.00
75942;BME280;64622;46.220;19.878;2023-06-24T00:11:46;100645.66;;;18.00;100.00
75942;BME280;64622;46.220;19.878;2023-06-24T00:14:12;100634.88;;;18.06;100.00
75942;BME280;64622;46.220;19.878;2023-06-24T00:16:41;100619.91;;;18.10;100.00
75942;BME280;64622;46.220;19.878;2023-06-24T00:19:08;100604.50;;;18.11;100.00
75942;BME280;64622;46.220;19.878;2023-06-24T00:21:34;100606.34;;;18.10;100.00
75942;BME280;64622;46.220;19.878;2023-06-24T00:24:04;100618.91;;;18.18;100.00
75942;BME280;64622;46.220;19.878;2023-06-24T00:26:31;100615.16;;;18.19;100.00
75942;BME280;64622;46.220;19.878;2023-06-24T00:28:58;100618.94;;;18.24;100.00
75942;BME280;64622;46.220;19.878;2023-06-24T00:31:25;100632.03;;;18.14;100.00
75942;BME280;64622;46.220;19.878;2023-06-24T00:33:52;100637.69;;;18.19;100.00
75942;BME280;64622;46.220;19.878;2023-06-24T00:36:20;100635.34;;;18.16;100.00
75942;BME280;64622;46.220;19.878;2023-06-24T00:38:47;100635.12;;;18.11;100.00
75942;BME280;64622;46.220;19.878;2023-06-24T00:41:16;100633.25;;;18.12;100.00
75942;BME280;64622;46.220;19.878;2023-06-24T00:43:45;100614.47;;;18.10;100.00
75942;BME280;64622;46.220;19.878;2023-06-24T00:46:12;100606.63;;;18.22;100.00
75942;BME280;64622;46.220;19.878;2023-06-24T00:48:40;100589.75;;;18.26;100.00
75942;BME280;64622;46.220;19.878;2023-06-24T00:51:07;100589.53;;;18.21;100.00
75942;BME280;64622;46.220;19.878;2023-06-24T00:53:33;100573.22;;;18.15;100.00
75942;BME280;64622;46.220;19.878;2023-06-24T00:56:00;100575.13;;;18.14;100.00
75942;BME280;64622;46.220;19.878;2023-06-24T00:58:31;100563.63;;;18.06;100.00
75942;BME280;64622;46.220;19.878;2023-06-24T01:00:58;100551.50;;;18.02;100.00
75942;BME280;64622;46.220;19.878;2023-06-24T01:03:26;100552.37;;;18.09;100.00
75942;BME280;64622;46.220;19.878;2023-06-24T01:05:54;100566.34;;;18.06;100.00
75942;BME280;64622;46.220;19.878;2023-06-24T01:08:21;100566.91;;;18.01;100.00
75942;BME280;64622;46.220;19.878;2023-06-24T01:10:50;100565.44;;;17.99;100.00
75942;BME280;64622;46.220;19.878;2023-06-24T01:13:18;100565.87;;;17.96;100.00
75942;BME280;64622;46.220;19.878;2023-06-24T01:15:45;100571.47;;;17.94;100.00
75942;BME280;64622;46.220;19.878;2023-06-24T01:18:28;100561.25;;;17.90;100.00
75942;BME280;64622;46.220;19.878;2023-06-24T01:21:15;100562.94;;;17.97;100.00
75942;BME280;64622;46.220;19.878;2023-06-24T01:26:20;100532.37;;;18.10;100.00
75942;BME280;64622;46.220;19.878;2023-06-24T01:29:14;100520.75;;;18.16;100.00
75942;BME280;64622;46.220;19.878;2023-06-24T01:40:04;100519.78;;;18.36;100.00
75942;BME280;64622;46.220;19.878;2023-06-24T01:42:42;100523.97;;;18.39;100.00
75942;BME280;64622;46.220;19.878;2023-06-24T01:45:14;100530.25;;;18.39;100.00
75942;BME280;64622;46.220;19.878;2023-06-24T01:47:44;100544.94;;;18.24;100.00
75942;BME280;64622;46.220;19.878;2023-06-24T01:50:13;100553.06;;;18.24;100.00
75942;BME280;64622;46.220;19.878;2023-06-24T01:52:44;100534.53;;;18.27;100.00
75942;BME280;64622;46.220;19.878;2023-06-24T01:55:18;100532.25;;;18.24;100.00
75942;BME280;64622;46.220;19.878;2023-06-24T01:57:50;100530.78;;;18.22;100.00
75942;BME280;64622;46.220;19.878;2023-06-24T02:00:18;100540.06;;;18.06;100.00
75942;BME280;64622;46.220;19.878;2023-06-24T02:02:49;100543.78;;;17.99;100.00
75942;BME280;64622;46.220;19.878;2023-06-24T02:05:17;100537.06;;;17.88;100.00
75942;BME280;64622;46.220;19.878;2023-06-24T02:07:48;100543.88;;;17.78;100.00
75942;BME280;64622;46.220;19.878;2023-06-24T02:10:17;100556.81;;;17.82;100.00
75942;BME280;64622;46.220;19.878;2023-06-24T02:12:46;100563.47;;;17.80;100.00
75942;BME280;64622;46.220;19.878;2023-06-24T02:15:14;100559.25;;;17.71;100.00
75942;BME280;64622;46.220;19.878;2023-06-24T02:17:42;100561.28;;;17.69;100.00
75942;BME280;64622;46.220;19.878;2023-06-24T02:20:10;100565.03;;;17.68;100.00
75942;BME280;64622;46.220;19.878;2023-06-24T02:22:38;100564.22;;;17.67;100.00
75942;BME280;64622;46.220;19.878;2023-06-24T02:25:07;100585.03;;;17.67;100.00
75942;BME280;64622;46.220;19.878;2023-06-24T02:27:35;100596.06;;;17.65;100.00
75942;BME280;64622;46.220;19.878;2023-06-24T02:30:04;100591.25;;;17.61;100.00
75942;BME280;64622;46.220;19.878;2023-06-24T02:32:32;100577.66;;;17.54;100.00
75942;BME280;64622;46.220;19.878;2023-06-24T02:34:59;100594.94;;;17.53;100.00
75942;BME280;64622;46.220;19.878;2023-06-24T02:37:28;100603.69;;;17.55;100.00
75942;BME280;64622;46.220;19.878;2023-06-24T02:39:56;100594.75;;;17.55;100.00
75942;BME280;64622;46.220;19.878;2023-06-24T02:42:23;100606.78;;;17.52;100.00
75942;BME280;64622;46.220;19.878;2023-06-24T02:44:50;100602.81;;;17.48;100.00
75942;BME280;64622;46.220;19.878;2023-06-24T02:47:19;100594.50;;;17.50;100.00
75942;BME280;64622;46.220;19.878;2023-06-24T02:49:48;100576.13;;;17.45;100.00
75942;BME280;64622;46.220;19.878;2023-06-24T02:52:15;100583.41;;;17.45;100.00
75942;BME280;64622;46.220;19.878;2023-06-24T02:54:43;100595.72;;;17.47;100.00
75942;BME280;64622;46.220;19.878;2023-06-24T02:57:11;100611.09;;;17.47;100.00
75942;BME280;64622;46.220;19.878;2023-06-24T02:59:41;100583.59;;;17.43;100.00
75942;BME280;64622;46.220;19.878;2023-06-24T03:02:09;100567.38;;;17.43;100.00
75942;BME280;64622;46.220;19.878;2023-06-24T03:04:36;100568.00;;;17.45;100.00
75942;BME280;64622;46.220;19.878;2023-06-24T03:07:05;100580.50;;;17.46;100.00
75942;BME280;64622;46.220;19.878;2023-06-24T03:09:34;100570.91;;;17.44;100.00
75942;BME280;64622;46.220;19.878;2023-06-24T03:12:01;100562.22;;;17.48;100.00
75942;BME280;64622;46.220;19.878;2023-06-24T03:14:28;100558.84;;;17.46;100.00
75942;BME280;64622;46.220;19.878;2023-06-24T03:16:55;100568.69;;;17.54;100.00
75942;BME280;64622;46.220;19.878;2023-06-24T03:19:22;100564.75;;;17.56;100.00
75942;BME280;64622;46.220;19.878;2023-06-24T03:21:49;100574.31;;;17.52;100.00
75942;BME280;64622;46.220;19.878;2023-06-24T03:24:16;100576.31;;;17.44;100.00
75942;BME280;64622;46.220;19.878;2023-06-24T03:26:43;100580.25;;;17.41;100.00
75942;BME280;64622;46.220;19.878;2023-06-24T03:29:10;100574.88;;;17.48;100.00
75942;BME280;64622;46.220;19.878;2023-06-24T03:31:38;100566.13;;;17.46;100.00
75942;BME280;64622;46.220;19.878;2023-06-24T03:34:10;100570.13;;;17.50;100.00
75942;BME280;64622;46.220;19.878;2023-06-24T03:36:37;100583.25;;;17.53;100.00
75942;BME280;64622;46.220;19.878;2023-06-24T03:39:07;100583.25;;;17.53;100.00
75942;BME280;64622;46.220;19.878;2023-06-24T03:41:33;100593.94;;;17.61;100.00
75942;BME280;64622;46.220;19.878;2023-06-24T03:44:00;100608.91;;;17.57;100.00
75942;BME280;64622;46.220;19.878;2023-06-24T03:46:27;100606.56;;;17.54;100.00
75942;BME280;64622;46.220;19.878;2023-06-24T03:48:59;100620.16;;;17.60;100.00
75942;BME280;64622;46.220;19.878;2023-06-24T03:51:27;100623.72;;;17.61;100.00
75942;BME280;64622;46.220;19.878;2023-06-24T03:53:54;100617.22;;;17.55;100.00
75942;BME280;64622;46.220;19.878;2023-06-24T03:56:20;100618.31;;;17.61;100.00
75942;BME280;64622;46.220;19.878;2023-06-24T03:58:47;100621.91;;;17.68;100.00
75942;BME280;64622;46.220;19.878;2023-06-24T04:01:14;100642.91;;;17.66;100.00
75942;BME280;64622;46.220;19.878;2023-06-24T04:03:41;100629.12;;;17.61;100.00
75942;BME280;64622;46.220;19.878;2023-06-24T04:06:07;100621.25;;;17.66;100.00
75942;BME280;64622;46.220;19.878;2023-06-24T04:08:34;100626.06;;;17.70;100.00
75942;BME280;64622;46.220;19.878;2023-06-24T04:11:01;100629.47;;;17.79;100.00
75942;BME280;64622;46.220;19.878;2023-06-24T04:13:29;100629.69;;;17.77;100.00
75942;BME280;64622;46.220;19.878;2023-06-24T04:15:56;100630.06;;;17.74;100.00
75942;BME280;64622;46.220;19.878;2023-06-24T04:18:23;100630.69;;;17.76;100.00
75942;BME280;64622;46.220;19.878;2023-06-24T04:20:49;100646.63;;;17.86;100.00
75942;BME280;64622;46.220;19.878;2023-06-24T04:23:16;100644.97;;;17.85;100.00
75942;BME280;64622;46.220;19.878;2023-06-24T04:25:43;100643.00;;;17.79;100.00
75942;BME280;64622;46.220;19.878;2023-06-24T04:28:10;100635.09;;;17.77;100.00
75942;BME280;64622;46.220;19.878;2023-06-24T04:30:36;100633.81;;;17.73;100.00
75942;BME280;64622;46.220;19.878;2023-06-24T04:33:05;100648.72;;;17.90;100.00
75942;BME280;64622;46.220;19.878;2023-06-24T04:35:31;100654.44;;;18.02;100.00
75942;BME280;64622;46.220;19.878;2023-06-24T04:37:58;100663.72;;;18.20;100.00
75942;BME280;64622;46.220;19.878;2023-06-24T04:40:25;100650.81;;;18.22;100.00
75942;BME280;64622;46.220;19.878;2023-06-24T04:42:51;100663.47;;;18.43;100.00
75942;BME280;64622;46.220;19.878;2023-06-24T04:45:18;100666.03;;;18.51;100.00
75942;BME280;64622;46.220;19.878;2023-06-24T04:47:45;100675.34;;;18.76;100.00
75942;BME280;64622;46.220;19.878;2023-06-24T04:50:12;100671.84;;;18.95;100.00
75942;BME280;64622;46.220;19.878;2023-06-24T04:52:39;100669.22;;;19.21;100.00
75942;BME280;64622;46.220;19.878;2023-06-24T04:55:06;100676.69;;;19.12;100.00
75942;BME280;64622;46.220;19.878;2023-06-24T04:57:33;100666.31;;;19.22;100.00
75942;BME280;64622;46.220;19.878;2023-06-24T05:00:00;100664.91;;;19.39;100.00
75942;BME280;64622;46.220;19.878;2023-06-24T05:02:27;100668.25;;;19.48;100.00
75942;BME280;64622;46.220;19.878;2023-06-24T05:04:54;100678.28;;;19.41;100.00
75942;BME280;64622;46.220;19.878;2023-06-24T05:07:20;100667.41;;;19.54;100.00
75942;BME280;64622;46.220;19.878;2023-06-24T05:09:48;100659.91;;;19.62;100.00
75942;BME280;64622;46.220;19.878;2023-06-24T05:12:14;100678.94;;;19.82;100.00
75942;BME280;64622;46.220;19.878;2023-06-24T05:14:41;100676.63;;;19.92;100.00
75942;BME280;64622;46.220;19.878;2023-06-24T05:17:07;100671.41;;;20.03;100.00
75942;BME280;64622;46.220;19.878;2023-06-24T05:19:34;100662.62;;;20.14;100.00
75942;BME280;64622;46.220;19.878;2023-06-24T05:22:00;100665.31;;;20.34;100.00
75942;BME280;64622;46.220;19.878;2023-06-24T05:24:27;100673.91;;;20.31;100.00
75942;BME280;64622;46.220;19.878;2023-06-24T05:26:54;100681.41;;;20.48;100.00
75942;BME280;64622;46.220;19.878;2023-06-24T05:29:20;100664.69;;;20.38;100.00
75942;BME280;64622;46.220;19.878;2023-06-24T05:31:47;100663.38;;;20.47;100.00
75942;BME280;64622;46.220;19.878;2023-06-24T05:34:13;100675.91;;;20.61;100.00
75942;BME280;64622;46.220;19.878;2023-06-24T05:36:40;100681.34;;;20.55;100.00
75942;BME280;64622;46.220;19.878;2023-06-24T05:39:07;100676.25;;;20.84;100.00
75942;BME280;64622;46.220;19.878;2023-06-24T05:41:34;100666.47;;;20.70;100.00
75942;BME280;64622;46.220;19.878;2023-06-24T05:44:08;100680.66;;;20.72;100.00
75942;BME280;64622;46.220;19.878;2023-06-24T05:46:38;100674.63;;;20.70;100.00
75942;BME280;64622;46.220;19.878;2023-06-24T05:49:04;100678.28;;;21.02;100.00
75942;BME280;64622;46.220;19.878;2023-06-24T05:51:31;100679.59;;;20.93;100.00
75942;BME280;64622;46.220;19.878;2023-06-24T05:53:57;100670.34;;;20.94;100.00
75942;BME280;64622;46.220;19.878;2023-06-24T05:56:24;100679.88;;;21.16;100.00
75942;BME280;64622;46.220;19.878;2023-06-24T05:58:51;100684.50;;;21.15;100.00
75942;BME280;64622;46.220;19.878;2023-06-24T06:01:17;100681.03;;;20.95;100.00
75942;BME280;64622;46.220;19.878;2023-06-24T06:03:44;100687.28;;;21.02;100.00
75942;BME280;64622;46.220;19.878;2023-06-24T06:06:11;100691.25;;;21.37;100.00
75942;BME280;64622;46.220;19.878;2023-06-24T06:08:37;100678.50;;;21.38;100.00
75942;BME280;64622;46.220;19.878;2023-06-24T06:11:05;100671.37;;;21.37;100.00
75942;BME280;64622;46.220;19.878;2023-06-24T06:13:31;100669.91;;;21.65;99.90
75942;BME280;64622;46.220;19.878;2023-06-24T06:15:58;100669.69;;;21.67;99.59
75942;BME280;64622;46.220;19.878;2023-06-24T06:18:25;100673.00;;;21.75;99.78
75942;BME280;64622;46.220;19.878;2023-06-24T06:20:51;100668.56;;;21.81;99.75
75942;BME280;64622;46.220;19.878;2023-06-24T06:23:18;100657.50;;;22.00;99.53
75942;BME280;64622;46.220;19.878;2023-06-24T06:25:45;100673.00;;;22.24;98.53
75942;BME280;64622;46.220;19.878;2023-06-24T06:28:11;100678.28;;;22.62;97.89
75942;BME280;64622;46.220;19.878;2023-06-24T06:30:38;100687.97;;;22.76;97.83
75942;BME280;64622;46.220;19.878;2023-06-24T06:33:05;100675.53;;;22.80;95.35
75942;BME280;64622;46.220;19.878;2023-06-24T06:35:32;100690.69;;;23.41;94.79
75942;BME280;64622;46.220;19.878;2023-06-24T06:37:58;100679.97;;;23.10;95.29
75942;BME280;64622;46.220;19.878;2023-06-24T06:40:26;100678.13;;;22.93;94.67
75942;BME280;64622;46.220;19.878;2023-06-24T06:42:54;100679.88;;;22.69;95.11
75942;BME280;64622;46.220;19.878;2023-06-24T06:45:21;100688.25;;;23.04;94.29
75942;BME280;64622;46.220;19.878;2023-06-24T06:47:49;100682.62;;;23.46;94.16
75942;BME280;64622;46.220;19.878;2023-06-24T06:50:16;100677.19;;;23.46;92.52
75942;BME280;64622;46.220;19.878;2023-06-24T06:52:43;100677.34;;;23.63;91.13
75942;BME280;64622;46.220;19.878;2023-06-24T06:55:10;100681.59;;;24.11;90.63
75942;BME280;64622;46.220;19.878;2023-06-24T06:57:36;100686.94;;;24.29;88.26
75942;BME280;64622;46.220;19.878;2023-06-24T07:00:03;100690.06;;;24.21;89.01
75942;BME280;64622;46.220;19.878;2023-06-24T07:02:30;100686.22;;;23.99;88.90
75942;BME280;64622;46.220;19.878;2023-06-24T07:04:57;100685.38;;;23.46;90.92
75942;BME280;64622;46.220;19.878;2023-06-24T07:07:25;100690.97;;;23.04;91.63
75942;BME280;64622;46.220;19.878;2023-06-24T07:09:51;100674.13;;;23.25;91.30
75942;BME280;64622;46.220;19.878;2023-06-24T07:12:18;100681.13;;;23.03;92.02
75942;BME280;64622;46.220;19.878;2023-06-24T07:14:46;100682.72;;;23.10;92.20
75942;BME280;64622;46.220;19.878;2023-06-24T07:17:13;100672.59;;;22.45;94.25
75942;BME280;64622;46.220;19.878;2023-06-24T07:19:40;100672.78;;;22.44;93.62
75942;BME280;64622;46.220;19.878;2023-06-24T07:22:06;100673.84;;;22.43;93.87
75942;BME280;64622;46.220;19.878;2023-06-24T07:24:33;100679.53;;;22.95;93.45
75942;BME280;64622;46.220;19.878;2023-06-24T07:27:00;100690.75;;;23.05;92.58
75942;BME280;64622;46.220;19.878;2023-06-24T07:29:26;100690.50;;;23.25;92.03
75942;BME280;64622;46.220;19.878;2023-06-24T07:31:53;100693.16;;;23.13;92.29
75942;BME280;64622;46.220;19.878;2023-06-24T07:34:20;100687.47;;;23.44;91.22
75942;BME280;64622;46.220;19.878;2023-06-24T07:36:46;100679.19;;;23.92;89.70
75942;BME280;64622;46.220;19.878;2023-06-24T07:39:13;100696.69;;;24.37;88.29
75942;BME280;64622;46.220;19.878;2023-06-24T07:41:39;100691.59;;;24.63;86.57
75942;BME280;64622;46.220;19.878;2023-06-24T07:44:06;100690.91;;;24.68;85.39
75942;BME280;64622;46.220;19.878;2023-06-24T07:46:34;100678.34;;;24.83;84.69
75942;BME280;64622;46.220;19.878;2023-06-24T07:49:00;100691.44;;;24.93;83.37
75942;BME280;64622;46.220;19.878;2023-06-24T07:51:27;100692.41;;;25.26;82.75
75942;BME280;64622;46.220;19.878;2023-06-24T07:53:54;100707.00;;;25.04;84.17
75942;BME280;64622;46.220;19.878;2023-06-24T07:56:20;100696.31;;;24.91;83.31
75942;BME280;64622;46.220;19.878;2023-06-24T07:58:47;100695.50;;;25.30;81.46
75942;BME280;64622;46.220;19.878;2023-06-24T08:01:14;100686.16;;;26.20;79.11
75942;BME280;64622;46.220;19.878;2023-06-24T08:03:40;100687.97;;;25.53;79.20
75942;BME280;64622;46.220;19.878;2023-06-24T08:06:07;100693.34;;;25.76;79.71
75942;BME280;64622;46.220;19.878;2023-06-24T08:08:33;100697.97;;;26.04;78.60
75942;BME280;64622;46.220;19.878;2023-06-24T08:11:00;100695.13;;;25.99;77.60
75942;BME280;64622;46.220;19.878;2023-06-24T08:13:26;100693.69;;;26.13;77.32
75942;BME280;64622;46.220;19.878;2023-06-24T08:15:53;100697.84;;;26.32;76.44
75942;BME280;64622;46.220;19.878;2023-06-24T08:18:20;100693.22;;;25.99;75.81
75942;BME280;64622;46.220;19.878;2023-06-24T08:20:46;100687.63;;;25.94;75.85
75942;BME280;64622;46.220;19.878;2023-06-24T08:23:13;100684.50;;;26.02;75.03
75942;BME280;64622;46.220;19.878;2023-06-24T08:25:40;100683.56;;;25.97;76.47
75942;BME280;64622;46.220;19.878;2023-06-24T08:28:06;100688.69;;;25.77;75.22
75942;BME280;64622;46.220;19.878;2023-06-24T08:30:32;100695.72;;;26.01;74.73
75942;BME280;64622;46.220;19.878;2023-06-24T08:32:59;100694.75;;;26.83;72.69
75942;BME280;64622;46.220;19.878;2023-06-24T08:35:26;100698.84;;;27.45;70.16
75942;BME280;64622;46.220;19.878;2023-06-24T08:37:52;100691.69;;;26.79;71.05
75942;BME280;64622;46.220;19.878;2023-06-24T08:40:19;100696.44;;;26.13;72.61
75942;BME280;64622;46.220;19.878;2023-06-24T08:42:46;100704.03;;;26.77;71.01
75942;BME280;64622;46.220;19.878;2023-06-24T08:45:12;100694.41;;;26.58;70.96
75942;BME280;64622;46.220;19.878;2023-06-24T08:47:40;100706.81;;;27.20;70.63
75942;BME280;64622;46.220;19.878;2023-06-24T08:50:13;100702.88;;;26.94;68.75
75942;BME280;64622;46.220;19.878;2023-06-24T08:52:42;100687.25;;;26.40;69.67
75942;BME280;64622;46.220;19.878;2023-06-24T08:55:13;100689.84;;;26.85;69.69
75942;BME280;64622;46.220;19.878;2023-06-24T08:57:42;100679.69;;;26.85;67.50
75942;BME280;64622;46.220;19.878;2023-06-24T09:00:10;100675.28;;;26.84;69.48
75942;BME280;64622;46.220;19.878;2023-06-24T09:02:39;100674.41;;;26.79;69.88
75942;BME280;64622;46.220;19.878;2023-06-24T09:05:07;100679.66;;;27.50;67.52
75942;BME280;64622;46.220;19.878;2023-06-24T09:07:34;100678.88;;;26.85;70.34
75942;BME280;64622;46.220;19.878;2023-06-24T09:10:01;100681.19;;;26.55;71.93
75942;BME280;64622;46.220;19.878;2023-06-24T09:12:28;100679.00;;;26.73;69.28
75942;BME280;64622;46.220;19.878;2023-06-24T09:14:57;100691.03;;;27.15;66.15
75942;BME280;64622;46.220;19.878;2023-06-24T09:17:24;100709.13;;;27.54;65.85
75942;BME280;64622;46.220;19.878;2023-06-24T09:19:51;100698.84;;;28.34;62.02
75942;BME280;64622;46.220;19.878;2023-06-24T09:22:17;100694.75;;;27.74;62.99
75942;BME280;64622;46.220;19.878;2023-06-24T09:24:46;100699.56;;;27.35;64.83
75942;BME280;64622;46.220;19.878;2023-06-24T09:27:14;100694.97;;;27.67;62.03
75942;BME280;64622;46.220;19.878;2023-06-24T09:29:42;100694.84;;;27.79;60.46
75942;BME280;64622;46.220;19.878;2023-06-24T09:32:10;100672.84;;;28.20;59.26
75942;BME280;64622;46.220;19.878;2023-06-24T09:34:37;100689.00;;;28.90;57.81
75942;BME280;64622;46.220;19.878;2023-06-24T09:37:04;100684.03;;;28.87;58.35
75942;BME280;64622;46.220;19.878;2023-06-24T09:39:36;100689.22;;;28.37;60.12
75942;BME280;64622;46.220;19.878;2023-06-24T09:42:04;100690.09;;;28.89;59.11
75942;BME280;64622;46.220;19.878;2023-06-24T09:44:31;100695.69;;;28.99;55.83
75942;BME280;64622;46.220;19.878;2023-06-24T09:46:58;100704.03;;;29.24;55.27
75942;BME280;64622;46.220;19.878;2023-06-24T09:49:25;100714.63;;;28.90;55.96
75942;BME280;64622;46.220;19.878;2023-06-24T09:51:56;100711.37;;;29.70;55.05
75942;BME280;64622;46.220;19.878;2023-06-24T09:54:28;100713.72;;;29.36;53.73
75942;BME280;64622;46.220;19.878;2023-06-24T09:56:58;100715.81;;;29.86;53.75
75942;BME280;64622;46.220;19.878;2023-06-24T09:59:27;100732.69;;;30.34;52.74
75942;BME280;64622;46.220;19.878;2023-06-24T10:01:54;100732.84;;;30.98;51.66
75942;BME280;64622;46.220;19.878;2023-06-24T10:04:22;100736.75;;;29.72;51.64
75942;BME280;64622;46.220;19.878;2023-06-24T10:06:49;100744.78;;;29.73;51.26
75942;BME280;64622;46.220;19.878;2023-06-24T10:09:16;100735.13;;;29.81;48.98
75942;BME280;64622;46.220;19.878;2023-06-24T10:11:45;100740.62;;;30.86;50.47
75942;BME280;64622;46.220;19.878;2023-06-24T10:14:12;100730.09;;;29.58;51.56
75942;BME280;64622;46.220;19.878;2023-06-24T10:16:38;100729.69;;;29.19;52.56
75942;BME280;64622;46.220;19.878;2023-06-24T10:19:06;100734.91;;;30.22;49.59
75942;BME280;64622;46.220;19.878;2023-06-24T10:21:51;100721.31;;;30.71;49.48
75942;BME280;64622;46.220;19.878;2023-06-24T10:24:29;100724.28;;;31.58;48.30
75942;BME280;64622;46.220;19.878;2023-06-24T10:27:03;100715.28;;;31.33;47.48
75942;BME280;64622;46.220;19.878;2023-06-24T10:29:34;100725.94;;;30.95;48.83
75942;BME280;64622;46.220;19.878;2023-06-24T10:32:03;100722.44;;;30.10;49.98
75942;BME280;64622;46.220;19.878;2023-06-24T10:34:38;100711.63;;;30.83;48.55
75942;BME280;64622;46.220;19.878;2023-06-24T10:37:17;100710.25;;;30.81;49.19
75942;BME280;64622;46.220;19.878;2023-06-24T10:44:59;100702.25;;;29.74;51.26
75942;BME280;64622;46.220;19.878;2023-06-24T10:47:27;100691.78;;;30.31;50.36
75942;BME280;64622;46.220;19.878;2023-06-24T10:49:54;100678.09;;;29.10;51.73
75942;BME280;64622;46.220;19.878;2023-06-24T10:52:22;100678.66;;;28.60;53.79
75942;BME280;64622;46.220;19.878;2023-06-24T10:54:50;100676.44;;;28.21;53.87
75942;BME280;64622;46.220;19.878;2023-06-24T10:57:21;100675.44;;;28.78;52.16
75942;BME280;64622;46.220;19.878;2023-06-24T10:59:50;100677.97;;;29.71;51.31
75942;BME280;64622;46.220;19.878;2023-06-24T11:02:18;100677.97;;;29.81;50.51
75942;BME280;64622;46.220;19.878;2023-06-24T11:07:14;100678.75;;;29.47;51.14
75942;BME280;64622;46.220;19.878;2023-06-24T11:09:41;100665.25;;;30.45;50.72
75942;BME280;64622;46.220;19.878;2023-06-24T11:12:09;100664.41;;;30.70;46.97
75942;BME280;64622;46.220;19.878;2023-06-24T11:14:38;100672.97;;;31.32;45.47
75942;BME280;64622;46.220;19.878;2023-06-24T11:17:05;100676.97;;;31.06;45.39
75942;BME280;64622;46.220;19.878;2023-06-24T11:19:32;100681.41;;;31.02;46.02
75942;BME280;64622;46.220;19.878;2023-06-24T11:22:00;100683.91;;;30.98;45.26
75942;BME280;64622;46.220;19.878;2023-06-24T11:24:30;100689.69;;;31.07;46.46
75942;BME280;64622;46.220;19.878;2023-06-24T11:26:56;100689.94;;;31.05;47.29
75942;BME280;64622;46.220;19.878;2023-06-24T11:29:23;100682.88;;;30.79;47.75
75942;BME280;64622;46.220;19.878;2023-06-24T11:31:50;100677.72;;;31.22;47.90
75942;BME280;64622;46.220;19.878;2023-06-24T11:34:17;100677.06;;;30.86;47.50
75942;BME280;64622;46.220;19.878;2023-06-24T11:36:44;100673.25;;;30.47;50.57
75942;BME280;64622;46.220;19.878;2023-06-24T11:41:48;100672.69;;;30.70;49.54
75942;BME280;64622;46.220;19.878;2023-06-24T11:44:17;100676.44;;;31.52;47.98
75942;BME280;64622;46.220;19.878;2023-06-24T11:46:44;100649.50;;;30.46;49.43
75942;BME280;64622;46.220;19.878;2023-06-24T11:49:11;100650.94;;;29.83;50.10
75942;BME280;64622;46.220;19.878;2023-06-24T11:51:49;100633.59;;;28.91;52.06
75942;BME280;64622;46.220;19.878;2023-06-24T11:54:20;100642.25;;;28.53;54.50
75942;BME280;64622;46.220;19.878;2023-06-24T11:56:51;100639.94;;;28.87;53.69
75942;BME280;64622;46.220;19.878;2023-06-24T11:59:23;100646.16;;;29.29;52.22
75942;BME280;64622;46.220;19.878;2023-06-24T12:04:20;100634.50;;;29.07;52.08
75942;BME280;64622;46.220;19.878;2023-06-24T12:06:47;100646.53;;;29.67;50.62
75942;BME280;64622;46.220;19.878;2023-06-24T12:09:14;100631.59;;;29.53;50.18
75942;BME280;64622;46.220;19.878;2023-06-24T12:11:40;100644.69;;;29.06;51.32
75942;BME280;64622;46.220;19.878;2023-06-24T12:14:07;100661.66;;;28.73;52.24
75942;BME280;64622;46.220;19.878;2023-06-24T12:16:34;100663.59;;;28.78;51.98
75942;BME280;64622;46.220;19.878;2023-06-24T12:19:00;100671.37;;;28.96;51.55
75942;BME280;64622;46.220;19.878;2023-06-24T12:21:27;100672.66;;;29.35;50.70
75942;BME280;64622;46.220;19.878;2023-06-24T12:23:53;100663.34;;;27.96;54.44
75942;BME280;64622;46.220;19.878;2023-06-24T12:26:20;100653.94;;;27.92;56.01
75942;BME280;64622;46.220;19.878;2023-06-24T12:28:46;100652.25;;;28.69;53.97
75942;BME280;64622;46.220;19.878;2023-06-24T12:31:12;100656.84;;;29.05;52.65
75942;BME280;64622;46.220;19.878;2023-06-24T12:33:39;100656.19;;;28.88;52.69
75942;BME280;64622;46.220;19.878;2023-06-24T12:36:06;100667.56;;;28.97;53.04
75942;BME280;64622;46.220;19.878;2023-06-24T12:38:32;100676.91;;;30.07;50.73
75942;BME280;64622;46.220;19.878;2023-06-24T12:40:59;100685.06;;;31.46;46.28
75942;BME280;64622;46.220;19.878;2023-06-24T12:43:25;100685.50;;;31.09;46.53
75942;BME280;64622;46.220;19.878;2023-06-24T12:45:52;100676.59;;;29.94;48.64
75942;BME280;64622;46.220;19.878;2023-06-24T12:48:19;100682.59;;;29.36;51.51
75942;BME280;64622;46.220;19.878;2023-06-24T12:50:45;100687.66;;;28.46;55.18
75942;BME280;64622;46.220;19.878;2023-06-24T12:53:13;100682.25;;;28.24;55.46
75942;BME280;64622;46.220;19.878;2023-06-24T12:55:42;100680.66;;;27.97;55.16
75942;BME280;64622;46.220;19.878;2023-06-24T12:58:08;100677.44;;;27.78;55.94
75942;BME280;64622;46.220;19.878;2023-06-24T13:00:34;100683.91;;;27.14;58.19
75942;BME280;64622;46.220;19.878;2023-06-24T13:03:02;100687.59;;;26.82;60.26